createdAt,value
2022-09-01T00:00:13.264Z,98441.22
2022-09-01T00:02:43.153Z,98437.88
2022-09-01T00:05:12.983Z,98446.88
2022-09-01T00:07:42.815Z,98444.41
2022-09-01T00:10:12.054Z,98445.47
2022-09-01T00:12:40.919Z,98450.06
2022-09-01T00:15:12.211Z,98453.66
2022-09-01T00:17:40.866Z,98444.41
2022-09-01T00:20:10.678Z,98451.41
2022-09-01T00:22:39.136Z,98447.00
2022-09-01T00:25:10.656Z,98448.06
2022-09-01T00:27:39.069Z,98448.06
2022-09-01T00:30:09.356Z,98457.19
2022-09-01T00:32:37.689Z,98451.25
2022-09-01T00:35:08.769Z,98446.25
2022-09-01T00:37:37.126Z,98449.81
2022-09-01T00:40:10.499Z,98442.00
2022-09-01T00:42:39.940Z,98442.13
2022-09-01T00:45:11.250Z,98441.38
2022-09-01T00:47:39.739Z,98442.34
2022-09-01T00:50:11.464Z,98440.75
2022-09-01T00:52:44.892Z,98428.81
2022-09-01T00:55:19.407Z,98430.44
2022-09-01T00:57:48.614Z,98429.25
2022-09-01T01:00:23.447Z,98435.63
2022-09-01T01:02:55.854Z,98433.47
2022-09-01T01:05:27.952Z,98435.38
2022-09-01T01:07:57.048Z,98436.34
2022-09-01T01:10:27.289Z,98433.81
2022-09-01T01:12:56.318Z,98434.06
2022-09-01T01:15:24.960Z,98439.16
2022-09-01T01:17:53.431Z,98433.34
2022-09-01T01:20:44.634Z,98437.59
2022-09-01T01:23:22.040Z,98432.53
2022-09-01T01:25:54.644Z,98433.44
2022-09-01T01:28:29.333Z,98434.41
2022-09-01T01:31:02.106Z,98433.69
2022-09-01T01:33:34.689Z,98434.63
2022-09-01T01:36:07.821Z,98436.66
2022-09-01T01:38:36.752Z,98432.47
2022-09-01T01:41:06.823Z,98436.88
2022-09-01T01:43:35.243Z,98438.88
2022-09-01T01:46:08.271Z,98438.13
2022-09-01T01:48:43.639Z,98436.59
2022-09-01T01:51:13.982Z,98440.38
2022-09-01T01:53:43.573Z,98440.38
2022-09-01T01:56:13.301Z,98437.88
2022-09-01T01:58:41.864Z,98438.00
2022-09-01T02:01:13.179Z,98439.97
2022-09-01T02:03:41.857Z,98444.59
2022-09-01T02:06:12.289Z,98445.53
2022-09-01T02:08:42.292Z,98440.63
2022-09-01T02:11:13.095Z,98448.56
2022-09-01T02:13:41.636Z,98440.06
2022-09-01T02:16:13.344Z,98441.19
2022-09-01T02:18:48.498Z,98442.47
2022-09-01T02:21:20.827Z,98436.56
2022-09-01T02:24:00.338Z,98436.66
2022-09-01T02:26:33.811Z,98443.63
2022-09-01T02:29:09.080Z,98439.47
2022-09-01T02:31:42.956Z,98433.44
2022-09-01T02:34:14.136Z,98433.56
2022-09-01T02:36:47.472Z,98438.03
2022-09-01T02:39:20.277Z,98432.22
2022-09-01T02:41:50.828Z,98435.75
2022-09-01T02:44:24.254Z,98435.06
2022-09-01T02:46:53.214Z,98441.19
2022-09-01T02:49:25.819Z,98432.66
2022-09-01T02:52:01.181Z,98444.22
2022-09-01T02:54:33.320Z,98440.38
2022-09-01T02:57:04.086Z,98437.25
2022-09-01T02:59:34.902Z,98436.72
2022-09-01T03:02:03.231Z,98432.47
2022-09-01T03:04:35.135Z,98434.34
2022-09-01T03:07:04.251Z,98435.19
2022-09-01T03:09:35.044Z,98430.81
2022-09-01T03:12:07.153Z,98433.63
2022-09-01T03:14:36.310Z,98431.03
2022-09-01T03:17:04.819Z,98426.03
2022-09-01T03:19:40.187Z,98427.69
2022-09-01T03:22:08.580Z,98422.19
2022-09-01T03:24:39.047Z,98425.53
2022-09-01T03:27:11.687Z,98424.09
2022-09-01T03:29:40.178Z,98427.53
2022-09-01T03:32:09.271Z,98433.75
2022-09-01T03:34:38.670Z,98429.38
2022-09-01T03:37:08.134Z,98429.72
2022-09-01T03:39:37.133Z,98433.38
2022-09-01T03:42:08.525Z,98429.91
2022-09-01T03:44:40.265Z,98432.75
2022-09-01T03:47:11.623Z,98431.88
2022-09-01T03:49:40.448Z,98434.59
2022-09-01T03:52:08.899Z,98425.25
2022-09-01T03:54:38.096Z,98431.31
2022-09-01T03:57:10.043Z,98429.63
2022-09-01T03:59:43.365Z,98428.06
2022-09-01T04:02:13.100Z,98432.66
2022-09-01T04:04:41.826Z,98431.91
2022-09-01T04:07:10.540Z,98435.47
2022-09-01T04:09:47.564Z,98431.91
2022-09-01T04:12:17.160Z,98428.81
2022-09-01T04:14:51.181Z,98441.69
2022-09-01T04:17:38.537Z,98442.94
2022-09-01T04:20:09.397Z,98436.94
2022-09-01T04:22:38.729Z,98437.00
2022-09-01T04:25:08.903Z,98443.66
2022-09-01T04:27:40.369Z,98438.69
2022-09-01T04:30:12.003Z,98434.63
2022-09-01T04:32:46.842Z,98444.19
2022-09-01T04:35:17.074Z,98445.00
2022-09-01T04:37:48.459Z,98442.66
2022-09-01T04:40:17.533Z,98443.66
2022-09-01T04:42:46.755Z,98440.44
2022-09-01T04:45:20.812Z,98453.44
2022-09-01T04:47:49.556Z,98442.41
2022-09-01T04:50:22.095Z,98442.41
2022-09-01T04:53:11.971Z,98434.72
2022-09-01T04:55:44.447Z,98446.06
2022-09-01T04:58:17.412Z,98441.06
2022-09-01T05:00:49.691Z,98446.47
2022-09-01T05:03:24.365Z,98446.88
2022-09-01T05:06:00.213Z,98442.09
2022-09-01T05:08:29.200Z,98445.59
2022-09-01T05:11:07.524Z,98455.16
2022-09-01T05:13:41.323Z,98445.59
2022-09-01T05:16:15.141Z,98447.28
2022-09-01T05:18:48.910Z,98453.00
2022-09-01T05:21:22.401Z,98442.63
2022-09-01T05:23:51.853Z,98442.63
2022-09-01T05:26:23.858Z,98451.25
2022-09-01T05:28:54.937Z,98454.78
2022-09-01T05:31:28.234Z,98451.34
2022-09-01T05:33:58.101Z,98450.41
2022-09-01T05:36:26.942Z,98456.34
2022-09-01T05:38:58.012Z,98447.63
2022-09-01T05:41:26.484Z,98451.78
2022-09-01T05:44:00.312Z,98452.50
2022-09-01T05:46:31.413Z,98441.66
2022-09-01T05:49:00.540Z,98447.69
2022-09-01T05:51:44.344Z,98454.66
2022-09-01T05:54:14.532Z,98444.38
2022-09-01T05:56:45.061Z,98448.63
2022-09-01T05:59:26.079Z,98447.69
2022-09-01T06:02:01.014Z,98452.69
2022-09-01T06:04:30.249Z,98440.66
2022-09-01T06:07:09.652Z,98445.00
2022-09-01T06:09:46.217Z,98438.78
2022-09-01T06:12:20.385Z,98439.50
2022-09-01T06:14:51.104Z,98434.94
2022-09-01T06:17:25.763Z,98445.66
2022-09-01T06:19:56.892Z,98443.03
2022-09-01T06:22:28.854Z,98436.91
2022-09-01T06:25:02.631Z,98447.09
2022-09-01T06:27:41.336Z,98445.25
2022-09-01T06:30:15.291Z,98443.56
2022-09-01T06:32:53.730Z,98438.16
2022-09-01T06:35:29.814Z,98440.66
2022-09-01T06:37:59.963Z,98442.00
2022-09-01T06:40:54.644Z,98447.00
2022-09-01T06:43:23.756Z,98444.22
2022-09-01T06:45:54.601Z,98439.50
2022-09-01T06:48:26.642Z,98444.91
2022-09-01T06:51:21.041Z,98447.31
2022-09-01T06:53:59.658Z,98449.38
2022-09-01T06:59:30.139Z,98447.41
2022-09-01T07:09:19.899Z,98450.50
2022-09-01T07:14:21.415Z,98454.94
2022-09-01T07:16:53.255Z,98459.28
2022-09-01T07:19:55.102Z,98457.25
2022-09-01T07:25:16.821Z,98453.84
2022-09-01T07:28:01.407Z,98459.66
2022-09-01T07:30:31.593Z,98466.19
2022-09-01T07:39:47.258Z,98465.91
2022-09-01T07:39:57.563Z,98446.66
2022-09-01T07:42:55.813Z,98442.50
2022-09-01T07:45:25.459Z,98467.47
2022-09-01T07:48:03.597Z,98473.06
2022-09-01T07:51:07.444Z,98478.91
2022-09-01T07:53:31.710Z,98479.59
2022-09-01T07:56:09.505Z,98486.03
2022-09-01T07:58:43.559Z,98490.06
2022-09-01T08:01:17.366Z,98487.13
2022-09-01T08:03:48.882Z,98487.50
2022-09-01T08:06:21.087Z,98492.16
2022-09-01T08:08:56.829Z,98485.31
2022-09-01T08:14:19.367Z,98489.47
2022-09-01T08:16:53.282Z,98492.38
2022-09-01T08:19:22.293Z,98496.53
2022-09-01T08:22:06.032Z,98491.19
2022-09-01T08:24:57.588Z,98484.94
2022-09-01T08:27:27.649Z,98492.28
2022-09-01T08:29:56.945Z,98494.06
2022-09-01T08:32:26.040Z,98487.81
2022-09-01T08:34:54.850Z,98494.44
2022-09-01T08:37:23.373Z,98501.69
2022-09-01T08:39:52.213Z,98493.88
2022-09-01T08:42:38.706Z,98495.75
2022-09-01T08:45:17.061Z,98496.50
2022-09-01T08:48:15.253Z,98488.91
2022-09-01T08:50:36.304Z,98493.16
2022-09-01T08:53:32.680Z,98491.97
2022-09-01T08:56:02.407Z,98497.19
2022-09-01T08:58:33.673Z,98496.22
2022-09-01T09:01:14.786Z,98497.22
2022-09-01T09:03:50.992Z,98496.44
2022-09-01T09:06:25.880Z,98497.22
2022-09-01T09:08:58.207Z,98508.25
2022-09-01T09:12:20.873Z,98500.28
2022-09-01T09:15:09.585Z,98507.19
2022-09-01T09:17:44.330Z,98505.63
2022-09-01T09:20:13.123Z,98510.34
2022-09-01T09:22:43.076Z,98510.34
2022-09-01T09:25:17.534Z,98501.91
2022-09-01T09:28:00.089Z,98501.78
2022-09-01T09:30:32.424Z,98499.41
2022-09-01T09:35:54.374Z,98501.25
2022-09-01T09:38:29.117Z,98501.59
2022-09-01T09:41:18.863Z,98501.84
2022-09-01T09:43:55.954Z,98495.53
2022-09-01T09:46:35.213Z,98498.94
2022-09-01T09:49:34.834Z,98494.41
2022-09-01T09:52:19.373Z,98496.53
2022-09-01T09:55:04.827Z,98498.78
2022-09-01T09:57:39.841Z,98496.28
2022-09-01T10:00:26.938Z,98489.97
2022-09-01T10:03:07.965Z,98491.75
2022-09-01T10:05:43.464Z,98483.28
2022-09-01T10:08:16.490Z,98488.41
2022-09-01T10:10:57.533Z,98483.75
2022-09-01T10:13:32.666Z,98481.22
2022-09-01T10:16:05.597Z,98481.53
2022-09-01T10:18:42.180Z,98478.13
2022-09-01T10:21:17.035Z,98476.28
2022-09-01T10:23:45.473Z,98474.94
2022-09-01T10:26:18.936Z,98478.31
2022-09-01T10:28:54.259Z,98486.16
2022-09-01T10:31:29.395Z,98480.53
2022-09-01T10:34:06.540Z,98477.25
2022-09-01T10:36:37.767Z,98475.06
2022-09-01T10:39:12.100Z,98476.78
2022-09-01T10:41:59.637Z,98480.09
2022-09-01T10:44:34.340Z,98473.94
2022-09-01T10:47:15.088Z,98471.31
2022-09-01T10:50:07.831Z,98480.06
2022-09-01T10:53:07.306Z,98478.25
2022-09-01T10:55:45.212Z,98477.16
2022-09-01T11:02:25.001Z,98457.34
2022-09-01T11:05:18.838Z,98453.63
2022-09-01T11:08:00.480Z,98458.44
2022-09-01T11:10:47.575Z,98456.25
2022-09-01T11:13:41.048Z,98452.78
2022-09-01T11:16:50.098Z,98445.78
2022-09-01T11:19:44.509Z,98450.75
2022-09-01T11:22:26.835Z,98444.41
2022-09-01T11:25:42.031Z,98448.66
2022-09-01T11:28:42.785Z,98446.59
2022-09-01T11:31:41.906Z,98444.44
2022-09-01T11:34:19.458Z,98443.72
2022-09-01T11:36:56.486Z,98437.19
2022-09-01T11:39:43.706Z,98432.88
2022-09-01T11:42:19.954Z,98437.03
2022-09-01T11:44:54.220Z,98431.47
2022-09-01T11:47:27.165Z,98433.00
2022-09-01T11:49:58.778Z,98431.34
2022-09-01T11:52:31.123Z,98421.94
2022-09-01T11:55:01.666Z,98420.09
2022-09-01T11:57:33.864Z,98420.09
2022-09-01T12:00:07.125Z,98417.69
2022-09-01T12:02:46.977Z,98415.00
2022-09-01T12:05:30.419Z,98406.91
2022-09-01T12:08:00.463Z,98419.25
2022-09-01T12:10:35.443Z,98415.66
2022-09-01T12:13:07.163Z,98408.59
2022-09-01T12:15:43.422Z,98400.38
2022-09-01T12:18:27.884Z,98403.47
2022-09-01T12:20:58.696Z,98401.09
2022-09-01T12:23:30.737Z,98402.81
2022-09-01T12:26:03.258Z,98398.13
2022-09-01T12:28:34.075Z,98395.72
2022-09-01T12:31:07.849Z,98397.44
2022-09-01T12:33:37.148Z,98394.16
2022-09-01T12:36:17.159Z,98389.44
2022-09-01T12:38:45.603Z,98393.44
2022-09-01T12:41:39.496Z,98392.28
2022-09-01T12:44:33.074Z,98390.00
2022-09-01T12:47:04.688Z,98389.00
2022-09-01T12:49:45.263Z,98383.72
2022-09-01T12:52:26.940Z,98382.41
2022-09-01T12:58:10.666Z,98384.06
2022-09-01T13:01:01.943Z,98373.53
2022-09-01T13:03:32.228Z,98380.91
2022-09-01T13:06:04.844Z,98383.38
2022-09-01T13:08:36.070Z,98380.66
2022-09-01T13:11:09.154Z,98379.94
2022-09-01T13:13:42.902Z,98380.19
2022-09-01T13:16:13.616Z,98373.97
2022-09-01T13:21:35.135Z,98379.81
2022-09-01T13:24:05.058Z,98370.56
2022-09-01T13:26:34.000Z,98369.09
2022-09-01T13:29:04.007Z,98369.00
2022-09-01T13:31:32.880Z,98371.03
2022-09-01T13:34:10.329Z,98370.19
2022-09-01T13:36:44.996Z,98360.91
2022-09-01T13:39:16.362Z,98358.88
2022-09-01T13:41:44.689Z,98354.84
2022-09-01T13:44:14.451Z,98357.81
2022-09-01T13:50:06.363Z,98348.41
2022-09-01T13:52:20.921Z,98347.63
2022-09-01T13:54:49.333Z,98347.09
2022-09-01T13:57:17.861Z,98349.88
2022-09-01T13:59:47.671Z,98348.09
2022-09-01T14:02:16.061Z,98343.78
2022-09-01T14:04:44.993Z,98344.06
2022-09-01T14:07:13.361Z,98336.59
2022-09-01T14:09:41.763Z,98336.38
2022-09-01T14:12:10.162Z,98333.22
2022-09-01T14:17:28.513Z,98340.84
2022-09-01T14:19:57.434Z,98321.31
2022-09-01T14:22:25.781Z,98329.59
2022-09-01T14:24:54.317Z,98333.94
2022-09-01T14:27:22.670Z,98329.03
2022-09-01T14:29:55.027Z,98322.94
2022-09-01T14:32:27.062Z,98320.53
2022-09-01T14:34:58.958Z,98319.72
2022-09-01T14:37:27.969Z,98323.22
2022-09-01T14:39:58.785Z,98325.47
2022-09-01T14:42:29.089Z,98309.53
2022-09-01T14:44:57.752Z,98314.84
2022-09-01T14:47:26.325Z,98310.09
2022-09-01T14:49:57.612Z,98297.81
2022-09-01T14:52:26.830Z,98298.22
2022-09-01T14:54:56.469Z,98305.97
2022-09-01T14:57:31.237Z,98300.66
2022-09-01T15:00:11.952Z,98296.34
2022-09-01T15:02:43.281Z,98291.75
2022-09-01T15:05:14.473Z,98294.59
2022-09-01T15:07:44.304Z,98297.84
2022-09-01T15:10:16.061Z,98294.34
2022-09-01T15:12:55.528Z,98289.00
2022-09-01T15:15:25.179Z,98286.19
2022-09-01T15:17:55.291Z,98291.59
2022-09-01T15:20:47.353Z,98293.00
2022-09-01T15:23:18.810Z,98285.66
2022-09-01T15:25:48.412Z,98285.31
2022-09-01T15:28:16.988Z,98280.41
2022-09-01T15:30:46.641Z,98288.59
2022-09-01T15:33:16.436Z,98289.81
2022-09-01T15:35:47.744Z,98292.88
2022-09-01T15:38:19.571Z,98298.78
2022-09-01T15:40:52.012Z,98297.09
2022-09-01T15:43:26.395Z,98296.66
2022-09-01T15:45:55.007Z,98298.25
2022-09-01T15:48:23.341Z,98287.16
2022-09-01T15:50:53.960Z,98289.22
2022-09-01T15:53:22.471Z,98284.31
2022-09-01T15:55:50.923Z,98286.63
2022-09-01T15:58:20.264Z,98281.53
2022-09-01T16:00:48.766Z,98278.94
2022-09-01T16:03:17.359Z,98279.16
2022-09-01T16:05:45.773Z,98278.56
2022-09-01T16:08:15.495Z,98273.84
2022-09-01T16:10:43.936Z,98270.78
2022-09-01T16:13:13.091Z,98278.97
2022-09-01T16:15:50.097Z,98265.66
2022-09-01T16:18:39.742Z,98269.75
2022-09-01T16:21:19.364Z,98261.34
2022-09-01T16:23:51.748Z,98269.75
2022-09-01T16:26:23.816Z,98258.88
2022-09-01T16:28:56.780Z,98260.72
2022-09-01T16:31:29.281Z,98264.63
2022-09-01T16:34:02.903Z,98259.47
2022-09-01T16:36:40.765Z,98259.06
2022-09-01T16:39:27.612Z,98258.66
2022-09-01T16:42:15.449Z,98259.88
2022-09-01T16:44:59.486Z,98257.84
2022-09-01T16:47:54.601Z,98248.00
2022-09-01T16:50:38.004Z,98251.28
2022-09-01T16:53:26.204Z,98251.47
2022-09-01T16:56:07.928Z,98249.66
2022-09-01T16:58:51.890Z,98256.22
2022-09-01T17:01:37.257Z,98252.94
2022-09-01T17:04:27.474Z,98253.16
2022-09-01T17:07:04.478Z,98252.34
2022-09-01T17:09:42.629Z,98250.91
2022-09-01T17:12:28.037Z,98260.69
2022-09-01T17:14:59.582Z,98252.06
2022-09-01T17:17:35.560Z,98253.28
2022-09-01T17:20:07.916Z,98254.44
2022-09-01T17:22:38.760Z,98254.38
2022-09-01T17:25:14.862Z,98260.25
2022-09-01T17:27:55.580Z,98254.84
2022-09-01T17:30:26.349Z,98256.00
2022-09-01T17:33:17.160Z,98257.09
2022-09-01T17:36:07.165Z,98261.91
2022-09-01T17:38:54.239Z,98264.28
2022-09-01T17:41:39.001Z,98267.25
2022-09-01T17:44:21.367Z,98270.00
2022-09-01T17:46:58.925Z,98267.84
2022-09-01T17:49:36.662Z,98269.16
2022-09-01T17:52:14.995Z,98271.28
2022-09-01T17:54:52.408Z,98272.81
2022-09-01T17:57:30.686Z,98278.88
2022-09-01T18:00:14.267Z,98278.34
2022-09-01T18:03:18.635Z,98282.84
2022-09-01T18:05:55.254Z,98284.56
2022-09-01T18:08:32.902Z,98282.41
2022-09-01T18:11:08.250Z,98290.81
2022-09-01T18:13:53.595Z,98286.44
2022-09-01T18:16:29.641Z,98294.00
2022-09-01T18:19:04.362Z,98301.03
2022-09-01T18:21:38.253Z,98296.81
2022-09-01T18:24:16.661Z,98298.06
2022-09-01T18:26:49.339Z,98314.03
2022-09-01T18:29:19.890Z,98311.66
2022-09-01T18:32:08.672Z,98312.06
2022-09-01T18:35:08.618Z,98313.50
2022-09-01T18:37:57.990Z,98311.91
2022-09-01T18:40:31.316Z,98310.94
2022-09-01T18:43:20.139Z,98312.81
2022-09-01T18:45:56.652Z,98318.50
2022-09-01T18:48:42.477Z,98320.72
2022-09-01T18:51:20.394Z,98317.50
2022-09-01T18:53:54.383Z,98312.59
2022-09-01T18:56:37.653Z,98314.59
2022-09-01T18:59:24.307Z,98310.50
2022-09-01T19:02:00.796Z,98316.47
2022-09-01T19:04:35.820Z,98315.66
2022-09-01T19:07:13.066Z,98309.94
2022-09-01T19:09:51.032Z,98321.53
2022-09-01T19:12:31.649Z,98322.69
2022-09-01T19:15:11.529Z,98321.06
2022-09-01T19:18:14.191Z,98322.38
2022-09-01T19:20:52.072Z,98330.13
2022-09-01T19:23:27.537Z,98323.38
2022-09-01T19:26:08.688Z,98321.91
2022-09-01T19:28:45.596Z,98319.44
2022-09-01T19:31:24.375Z,98317.94
2022-09-01T19:33:58.527Z,98323.38
2022-09-01T19:36:39.624Z,98331.91
2022-09-01T19:39:12.165Z,98335.19
2022-09-01T19:41:46.650Z,98331.88
2022-09-01T19:44:24.248Z,98330.03
2022-09-01T19:46:56.467Z,98331.19
2022-09-01T19:49:35.915Z,98334.78
2022-09-01T19:52:12.424Z,98332.78
2022-09-01T19:54:51.948Z,98333.91
2022-09-01T19:57:28.685Z,98327.78
2022-09-01T20:00:05.356Z,98332.19
2022-09-01T20:02:38.034Z,98326.03
2022-09-01T20:05:23.743Z,98331.41
2022-09-01T20:07:57.885Z,98332.19
2022-09-01T20:10:57.333Z,98337.56
2022-09-01T20:13:58.518Z,98331.28
2022-09-01T20:16:33.641Z,98329.41
2022-09-01T20:19:10.361Z,98328.38
2022-09-01T20:21:45.351Z,98334.28
2022-09-01T20:24:26.920Z,98326.63
2022-09-01T20:27:05.328Z,98328.31
2022-09-01T20:29:45.122Z,98328.66
2022-09-01T20:32:27.933Z,98324.28
2022-09-01T20:35:04.842Z,98326.84
2022-09-01T20:37:39.124Z,98324.00
2022-09-01T20:40:13.846Z,98321.97
2022-09-01T20:42:52.265Z,98320.63
2022-09-01T20:45:23.709Z,98326.19
2022-09-01T20:47:58.706Z,98329.41
2022-09-01T20:50:38.843Z,98334.28
2022-09-01T20:53:25.748Z,98329.66
2022-09-01T20:55:59.665Z,98332.69
2022-09-01T20:58:34.941Z,98326.25
2022-09-01T21:01:20.261Z,98326.16
2022-09-01T21:04:00.034Z,98322.44
2022-09-01T21:06:45.729Z,98321.09
2022-09-01T21:09:31.383Z,98319.03
2022-09-01T21:12:08.531Z,98321.28
2022-09-01T21:14:57.190Z,98313.84
2022-09-01T21:17:33.585Z,98318.72
2022-09-01T21:20:14.218Z,98316.66
2022-09-01T21:22:42.720Z,98313.13
2022-09-01T21:25:11.222Z,98316.19
2022-09-01T21:27:48.726Z,98306.78
2022-09-01T21:30:17.755Z,98310.69
2022-09-01T21:32:46.308Z,98314.56
2022-09-01T21:35:18.403Z,98312.06
2022-09-01T21:37:47.063Z,98314.31
2022-09-01T21:40:17.043Z,98314.03
2022-09-01T21:42:54.387Z,98319.59
2022-09-01T21:45:24.401Z,98315.03
2022-09-01T21:47:53.765Z,98316.69
2022-09-01T21:50:25.150Z,98321.28
2022-09-01T21:52:53.678Z,98318.53
2022-09-01T21:55:25.217Z,98319.63
2022-09-01T21:57:55.480Z,98316.75
2022-09-01T22:00:27.443Z,98311.91
2022-09-01T22:02:57.578Z,98312.34
2022-09-01T22:05:27.279Z,98308.63
2022-09-01T22:07:58.363Z,98310.03
2022-09-01T22:10:31.710Z,98309.59
2022-09-01T22:13:03.892Z,98309.34
2022-09-01T22:15:32.693Z,98305.63
2022-09-01T22:18:01.282Z,98307.69
2022-09-01T22:20:32.133Z,98307.41
2022-09-01T22:23:02.175Z,98310.28
2022-09-01T22:25:32.816Z,98303.09
2022-09-01T22:28:06.373Z,98307.78
2022-09-01T22:30:36.107Z,98303.91
2022-09-01T22:33:07.561Z,98298.38
2022-09-01T22:35:41.483Z,98305.56
2022-09-01T22:38:10.363Z,98306.94
2022-09-01T22:40:45.703Z,98305.53
2022-09-01T22:43:17.975Z,98303.47
2022-09-01T22:45:48.041Z,98304.72
2022-09-01T22:48:18.324Z,98309.38
2022-09-01T22:50:48.157Z,98306.31
2022-09-01T22:53:18.583Z,98308.53
2022-09-01T22:55:52.006Z,98305.22
2022-09-01T22:58:22.021Z,98309.19
2022-09-01T23:00:54.858Z,98311.50
2022-09-01T23:03:24.258Z,98315.63
2022-09-01T23:06:05.316Z,98308.97
2022-09-01T23:08:34.021Z,98312.56
2022-09-01T23:11:03.003Z,98304.03
2022-09-01T23:13:34.201Z,98305.84
2022-09-01T23:16:05.003Z,98300.72
2022-09-01T23:18:37.911Z,98306.50
2022-09-01T23:21:08.116Z,98305.75
2022-09-01T23:23:38.151Z,98295.69
2022-09-01T23:26:10.463Z,98295.38
2022-09-01T23:28:41.999Z,98293.00
2022-09-01T23:31:12.776Z,98298.38
2022-09-01T23:33:41.871Z,98299.84
2022-09-01T23:36:13.138Z,98300.94
2022-09-01T23:38:42.283Z,98293.38
2022-09-01T23:41:16.297Z,98300.50
2022-09-01T23:43:46.156Z,98293.88
2022-09-01T23:46:19.325Z,98294.13
2022-09-01T23:48:48.302Z,98302.50
2022-09-01T23:51:18.781Z,98305.38
2022-09-01T23:53:48.975Z,98300.53
2022-09-01T23:56:21.743Z,98290.47
2022-09-01T23:58:52.739Z,98294.84
